sensor_id;sensor_type;location;lat;lon;timestamp;P1;durP1;ratioP1;P2;durP2;ratioP2
75645;SDS011;64237;52.438;13.240;2022-12-07T00:01:35;11.00;;;4.25;;
75645;SDS011;64237;52.438;13.240;2022-12-07T00:04:05;11.75;;;4.45;;
75645;SDS011;64237;52.438;13.240;2022-12-07T00:06:33;11.57;;;4.32;;
75645;SDS011;64237;52.438;13.240;2022-12-07T00:08:59;9.45;;;4.05;;
75645;SDS011;64237;52.438;13.240;2022-12-07T00:11:25;11.40;;;3.97;;
75645;SDS011;64237;52.438;13.240;2022-12-07T00:13:51;11.68;;;4.30;;
75645;SDS011;64237;52.438;13.240;2022-12-07T00:16:19;10.43;;;4.15;;
75645;SDS011;64237;52.438;13.240;2022-12-07T00:18:46;10.25;;;4.03;;
75645;SDS011;64237;52.438;13.240;2022-12-07T00:21:13;12.32;;;4.22;;
75645;SDS011;64237;52.438;13.240;2022-12-07T00:23:41;11.00;;;3.90;;
75645;SDS011;64237;52.438;13.240;2022-12-07T00:26:09;9.77;;;3.88;;
75645;SDS011;64237;52.438;13.240;2022-12-07T00:28:36;9.23;;;3.60;;
75645;SDS011;64237;52.438;13.240;2022-12-07T00:31:06;8.63;;;3.47;;
75645;SDS011;64237;52.438;13.240;2022-12-07T00:33:34;8.43;;;3.13;;
75645;SDS011;64237;52.438;13.240;2022-12-07T00:36:00;9.20;;;3.42;;
75645;SDS011;64237;52.438;13.240;2022-12-07T00:38:30;8.60;;;3.60;;
75645;SDS011;64237;52.438;13.240;2022-12-07T00:40:57;8.15;;;3.55;;
75645;SDS011;64237;52.438;13.240;2022-12-07T00:43:24;9.35;;;3.40;;
75645;SDS011;64237;52.438;13.240;2022-12-07T00:45:49;10.20;;;3.88;;
75645;SDS011;64237;52.438;13.240;2022-12-07T00:48:15;8.90;;;3.38;;
75645;SDS011;64237;52.438;13.240;2022-12-07T00:50:40;7.03;;;2.92;;
75645;SDS011;64237;52.438;13.240;2022-12-07T00:53:05;9.18;;;3.17;;
75645;SDS011;64237;52.438;13.240;2022-12-07T00:55:34;8.43;;;2.78;;
75645;SDS011;64237;52.438;13.240;2022-12-07T00:58:00;7.63;;;2.97;;
75645;SDS011;64237;52.438;13.240;2022-12-07T01:00:25;8.27;;;3.15;;
75645;SDS011;64237;52.438;13.240;2022-12-07T01:02:50;7.07;;;2.80;;
75645;SDS011;64237;52.438;13.240;2022-12-07T01:05:16;10.45;;;3.63;;
75645;SDS011;64237;52.438;13.240;2022-12-07T01:07:42;9.10;;;3.23;;
75645;SDS011;64237;52.438;13.240;2022-12-07T01:10:07;7.70;;;2.85;;
75645;SDS011;64237;52.438;13.240;2022-12-07T01:12:33;6.93;;;2.63;;
75645;SDS011;64237;52.438;13.240;2022-12-07T01:14:58;7.20;;;2.93;;
75645;SDS011;64237;52.438;13.240;2022-12-07T01:17:23;7.80;;;2.83;;
75645;SDS011;64237;52.438;13.240;2022-12-07T01:19:49;6.43;;;2.57;;
75645;SDS011;64237;52.438;13.240;2022-12-07T01:22:14;9.90;;;2.83;;
75645;SDS011;64237;52.438;13.240;2022-12-07T01:24:39;7.90;;;2.92;;
75645;SDS011;64237;52.438;13.240;2022-12-07T01:27:05;8.40;;;2.77;;
75645;SDS011;64237;52.438;13.240;2022-12-07T01:29:30;6.90;;;2.87;;
75645;SDS011;64237;52.438;13.240;2022-12-07T01:31:55;8.90;;;2.73;;
75645;SDS011;64237;52.438;13.240;2022-12-07T01:34:21;8.65;;;2.63;;
75645;SDS011;64237;52.438;13.240;2022-12-07T01:36:46;7.25;;;2.75;;
75645;SDS011;64237;52.438;13.240;2022-12-07T01:39:11;6.90;;;2.92;;
75645;SDS011;64237;52.438;13.240;2022-12-07T01:41:38;7.65;;;2.75;;
75645;SDS011;64237;52.438;13.240;2022-12-07T01:46:39;9.98;;;2.58;;
75645;SDS011;64237;52.438;13.240;2022-12-07T01:49:06;7.00;;;2.67;;
75645;SDS011;64237;52.438;13.240;2022-12-07T01:54:02;8.05;;;2.72;;
75645;SDS011;64237;52.438;13.240;2022-12-07T01:56:28;7.32;;;2.72;;
75645;SDS011;64237;52.438;13.240;2022-12-07T01:58:54;7.72;;;2.97;;
75645;SDS011;64237;52.438;13.240;2022-12-07T02:01:21;7.85;;;2.80;;
75645;SDS011;64237;52.438;13.240;2022-12-07T02:03:46;7.68;;;2.70;;
75645;SDS011;64237;52.438;13.240;2022-12-07T02:06:14;9.10;;;3.05;;
75645;SDS011;64237;52.438;13.240;2022-12-07T02:08:44;7.43;;;2.78;;
75645;SDS011;64237;52.438;13.240;2022-12-07T02:11:11;6.40;;;2.83;;
75645;SDS011;64237;52.438;13.240;2022-12-07T02:13:38;7.95;;;3.28;;
75645;SDS011;64237;52.438;13.240;2022-12-07T02:19:01;7.40;;;2.92;;
75645;SDS011;64237;52.438;13.240;2022-12-07T02:24:29;7.57;;;2.55;;
75645;SDS011;64237;52.438;13.240;2022-12-07T02:32:54;6.38;;;2.58;;
75645;SDS011;64237;52.438;13.240;2022-12-07T02:35:32;7.22;;;2.80;;
75645;SDS011;64237;52.438;13.240;2022-12-07T02:38:22;7.20;;;2.55;;
75645;SDS011;64237;52.438;13.240;2022-12-07T02:41:13;7.75;;;2.90;;
75645;SDS011;64237;52.438;13.240;2022-12-07T02:43:46;6.25;;;2.47;;
75645;SDS011;64237;52.438;13.240;2022-12-07T02:46:35;7.10;;;2.90;;
75645;SDS011;64237;52.438;13.240;2022-12-07T02:51:30;6.63;;;2.83;;
75645;SDS011;64237;52.438;13.240;2022-12-07T02:53:56;7.80;;;2.53;;
75645;SDS011;64237;52.438;13.240;2022-12-07T02:59:25;7.25;;;3.03;;
75645;SDS011;64237;52.438;13.240;2022-12-07T03:05:04;10.55;;;3.42;;
75645;SDS011;64237;52.438;13.240;2022-12-07T03:13:25;9.32;;;3.13;;
75645;SDS011;64237;52.438;13.240;2022-12-07T03:16:02;7.72;;;2.95;;
75645;SDS011;64237;52.438;13.240;2022-12-07T03:18:38;8.38;;;3.20;;
75645;SDS011;64237;52.438;13.240;2022-12-07T03:21:11;8.48;;;3.13;;
75645;SDS011;64237;52.438;13.240;2022-12-07T03:23:40;8.00;;;3.08;;
75645;SDS011;64237;52.438;13.240;2022-12-07T03:26:10;8.75;;;2.92;;
75645;SDS011;64237;52.438;13.240;2022-12-07T03:28:40;10.27;;;3.38;;
75645;SDS011;64237;52.438;13.240;2022-12-07T03:31:16;8.57;;;2.95;;
75645;SDS011;64237;52.438;13.240;2022-12-07T03:34:32;9.82;;;3.47;;
75645;SDS011;64237;52.438;13.240;2022-12-07T03:42:36;8.98;;;3.40;;
75645;SDS011;64237;52.438;13.240;2022-12-07T03:45:02;9.18;;;3.50;;
75645;SDS011;64237;52.438;13.240;2022-12-07T03:47:44;8.68;;;3.42;;
75645;SDS011;64237;52.438;13.240;2022-12-07T03:50:25;10.63;;;3.20;;
75645;SDS011;64237;52.438;13.240;2022-12-07T03:53:10;9.18;;;2.92;;
75645;SDS011;64237;52.438;13.240;2022-12-07T03:55:39;8.77;;;3.28;;
75645;SDS011;64237;52.438;13.240;2022-12-07T03:58:10;8.63;;;3.25;;
75645;SDS011;64237;52.438;13.240;2022-12-07T04:00:37;9.15;;;3.47;;
75645;SDS011;64237;52.438;13.240;2022-12-07T04:03:03;8.95;;;3.95;;
75645;SDS011;64237;52.438;13.240;2022-12-07T04:05:28;9.77;;;3.78;;
75645;SDS011;64237;52.438;13.240;2022-12-07T04:07:54;10.50;;;3.58;;
75645;SDS011;64237;52.438;13.240;2022-12-07T04:10:20;10.88;;;3.97;;
75645;SDS011;64237;52.438;13.240;2022-12-07T04:12:45;12.35;;;4.07;;
75645;SDS011;64237;52.438;13.240;2022-12-07T04:15:11;9.48;;;3.65;;
75645;SDS011;64237;52.438;13.240;2022-12-07T04:17:36;11.98;;;4.35;;
75645;SDS011;64237;52.438;13.240;2022-12-07T04:20:02;12.73;;;4.85;;
75645;SDS011;64237;52.438;13.240;2022-12-07T04:22:29;12.32;;;4.78;;
75645;SDS011;64237;52.438;13.240;2022-12-07T04:24:54;12.30;;;4.47;;
75645;SDS011;64237;52.438;13.240;2022-12-07T04:27:19;13.32;;;5.10;;
75645;SDS011;64237;52.438;13.240;2022-12-07T04:29:45;14.75;;;5.20;;
75645;SDS011;64237;52.438;13.240;2022-12-07T04:32:10;12.70;;;5.13;;
75645;SDS011;64237;52.438;13.240;2022-12-07T04:34:35;14.38;;;5.28;;
75645;SDS011;64237;52.438;13.240;2022-12-07T04:37:01;15.10;;;5.55;;
75645;SDS011;64237;52.438;13.240;2022-12-07T04:39:28;13.52;;;5.32;;
75645;SDS011;64237;52.438;13.240;2022-12-07T04:41:54;13.75;;;5.53;;
75645;SDS011;64237;52.438;13.240;2022-12-07T04:44:21;14.50;;;5.07;;
75645;SDS011;64237;52.438;13.240;2022-12-07T04:46:47;14.27;;;5.38;;
75645;SDS011;64237;52.438;13.240;2022-12-07T04:49:13;16.45;;;6.47;;
75645;SDS011;64237;52.438;13.240;2022-12-07T04:51:39;15.93;;;6.35;;
75645;SDS011;64237;52.438;13.240;2022-12-07T04:54:05;18.50;;;6.45;;
75645;SDS011;64237;52.438;13.240;2022-12-07T04:56:31;16.23;;;5.70;;
75645;SDS011;64237;52.438;13.240;2022-12-07T04:58:57;16.80;;;6.38;;
75645;SDS011;64237;52.438;13.240;2022-12-07T05:01:23;16.15;;;5.78;;
75645;SDS011;64237;52.438;13.240;2022-12-07T05:03:49;16.10;;;6.03;;
75645;SDS011;64237;52.438;13.240;2022-12-07T05:06:14;16.77;;;6.40;;
75645;SDS011;64237;52.438;13.240;2022-12-07T05:08:40;16.45;;;6.22;;
75645;SDS011;64237;52.438;13.240;2022-12-07T05:11:07;17.90;;;5.75;;
75645;SDS011;64237;52.438;13.240;2022-12-07T05:13:33;19.13;;;7.25;;
75645;SDS011;64237;52.438;13.240;2022-12-07T05:15:59;16.75;;;6.35;;
75645;SDS011;64237;52.438;13.240;2022-12-07T05:18:25;19.42;;;7.38;;
75645;SDS011;64237;52.438;13.240;2022-12-07T05:20:50;20.85;;;7.72;;
75645;SDS011;64237;52.438;13.240;2022-12-07T05:23:16;20.38;;;7.43;;
75645;SDS011;64237;52.438;13.240;2022-12-07T05:25:41;17.98;;;7.05;;
75645;SDS011;64237;52.438;13.240;2022-12-07T05:28:07;18.10;;;6.63;;
75645;SDS011;64237;52.438;13.240;2022-12-07T05:30:32;20.73;;;7.22;;
75645;SDS011;64237;52.438;13.240;2022-12-07T05:32:58;17.40;;;6.95;;
75645;SDS011;64237;52.438;13.240;2022-12-07T05:35:23;19.83;;;6.78;;
75645;SDS011;64237;52.438;13.240;2022-12-07T05:37:49;19.02;;;7.05;;
75645;SDS011;64237;52.438;13.240;2022-12-07T05:40:14;20.92;;;7.10;;
75645;SDS011;64237;52.438;13.240;2022-12-07T05:42:40;19.25;;;7.18;;
75645;SDS011;64237;52.438;13.240;2022-12-07T05:45:06;18.67;;;6.85;;
75645;SDS011;64237;52.438;13.240;2022-12-07T05:47:32;21.63;;;7.38;;
75645;SDS011;64237;52.438;13.240;2022-12-07T05:49:58;19.42;;;7.18;;
75645;SDS011;64237;52.438;13.240;2022-12-07T05:52:24;24.30;;;9.13;;
75645;SDS011;64237;52.438;13.240;2022-12-07T05:54:49;23.88;;;7.63;;
75645;SDS011;64237;52.438;13.240;2022-12-07T05:57:15;25.27;;;7.75;;
75645;SDS011;64237;52.438;13.240;2022-12-07T05:59:40;24.75;;;7.82;;
75645;SDS011;64237;52.438;13.240;2022-12-07T06:02:07;21.00;;;7.70;;
75645;SDS011;64237;52.438;13.240;2022-12-07T06:04:36;20.92;;;8.18;;
75645;SDS011;64237;52.438;13.240;2022-12-07T06:07:03;22.30;;;8.25;;
75645;SDS011;64237;52.438;13.240;2022-12-07T06:09:29;23.90;;;8.63;;
75645;SDS011;64237;52.438;13.240;2022-12-07T06:11:55;20.23;;;7.95;;
75645;SDS011;64237;52.438;13.240;2022-12-07T06:14:40;21.52;;;7.63;;
75645;SDS011;64237;52.438;13.240;2022-12-07T06:17:06;20.92;;;8.10;;
75645;SDS011;64237;52.438;13.240;2022-12-07T06:19:31;19.98;;;7.93;;
75645;SDS011;64237;52.438;13.240;2022-12-07T06:21:57;23.33;;;8.07;;
75645;SDS011;64237;52.438;13.240;2022-12-07T06:24:23;21.75;;;8.35;;
75645;SDS011;64237;52.438;13.240;2022-12-07T06:26:48;24.83;;;8.82;;
75645;SDS011;64237;52.438;13.240;2022-12-07T06:29:14;22.60;;;8.13;;
75645;SDS011;64237;52.438;13.240;2022-12-07T06:31:40;24.95;;;8.45;;
75645;SDS011;64237;52.438;13.240;2022-12-07T06:34:15;22.60;;;8.45;;
75645;SDS011;64237;52.438;13.240;2022-12-07T06:36:42;23.40;;;9.30;;
75645;SDS011;64237;52.438;13.240;2022-12-07T06:39:08;21.55;;;8.07;;
75645;SDS011;64237;52.438;13.240;2022-12-07T06:41:34;21.65;;;8.90;;
75645;SDS011;64237;52.438;13.240;2022-12-07T06:44:03;24.27;;;8.63;;
75645;SDS011;64237;52.438;13.240;2022-12-07T06:46:29;49.55;;;11.20;;
75645;SDS011;64237;52.438;13.240;2022-12-07T06:48:55;26.50;;;9.13;;
75645;SDS011;64237;52.438;13.240;2022-12-07T06:51:20;20.25;;;8.80;;
75645;SDS011;64237;52.438;13.240;2022-12-07T06:53:45;20.05;;;7.55;;
75645;SDS011;64237;52.438;13.240;2022-12-07T06:56:11;18.83;;;7.68;;
75645;SDS011;64237;52.438;13.240;2022-12-07T06:58:36;21.80;;;8.95;;
75645;SDS011;64237;52.438;13.240;2022-12-07T07:01:02;20.35;;;7.57;;
75645;SDS011;64237;52.438;13.240;2022-12-07T07:03:27;20.15;;;8.07;;
75645;SDS011;64237;52.438;13.240;2022-12-07T07:05:53;20.48;;;8.35;;
75645;SDS011;64237;52.438;13.240;2022-12-07T07:08:18;22.13;;;8.35;;
75645;SDS011;64237;52.438;13.240;2022-12-07T07:10:43;19.70;;;7.97;;
75645;SDS011;64237;52.438;13.240;2022-12-07T07:13:09;19.13;;;7.70;;
75645;SDS011;64237;52.438;13.240;2022-12-07T07:15:35;21.95;;;8.45;;
75645;SDS011;64237;52.438;13.240;2022-12-07T07:18:02;22.95;;;7.68;;
75645;SDS011;64237;52.438;13.240;2022-12-07T07:20:28;17.20;;;7.10;;
75645;SDS011;64237;52.438;13.240;2022-12-07T07:22:54;21.55;;;7.57;;
75645;SDS011;64237;52.438;13.240;2022-12-07T07:25:19;18.65;;;7.63;;
75645;SDS011;64237;52.438;13.240;2022-12-07T07:27:45;19.65;;;7.90;;
75645;SDS011;64237;52.438;13.240;2022-12-07T07:30:10;19.27;;;7.73;;
75645;SDS011;64237;52.438;13.240;2022-12-07T07:32:36;18.33;;;7.28;;
75645;SDS011;64237;52.438;13.240;2022-12-07T07:35:01;17.92;;;7.43;;
75645;SDS011;64237;52.438;13.240;2022-12-07T07:37:27;21.27;;;7.50;;
75645;SDS011;64237;52.438;13.240;2022-12-07T07:39:52;16.13;;;6.88;;
75645;SDS011;64237;52.438;13.240;2022-12-07T07:42:18;18.05;;;6.63;;
75645;SDS011;64237;52.438;13.240;2022-12-07T07:44:43;19.02;;;6.75;;
75645;SDS011;64237;52.438;13.240;2022-12-07T07:47:08;16.98;;;7.03;;
75645;SDS011;64237;52.438;13.240;2022-12-07T07:49:34;20.23;;;7.53;;
75645;SDS011;64237;52.438;13.240;2022-12-07T07:51:59;15.48;;;6.28;;
75645;SDS011;64237;52.438;13.240;2022-12-07T07:54:24;16.57;;;6.00;;
75645;SDS011;64237;52.438;13.240;2022-12-07T07:56:50;17.00;;;6.43;;
75645;SDS011;64237;52.438;13.240;2022-12-07T07:59:17;14.00;;;5.50;;
75645;SDS011;64237;52.438;13.240;2022-12-07T08:01:42;12.90;;;5.35;;
75645;SDS011;64237;52.438;13.240;2022-12-07T08:04:07;15.13;;;6.03;;
75645;SDS011;64237;52.438;13.240;2022-12-07T08:06:33;14.73;;;5.38;;
75645;SDS011;64237;52.438;13.240;2022-12-07T08:08:59;14.60;;;5.55;;
75645;SDS011;64237;52.438;13.240;2022-12-07T08:11:24;14.10;;;5.60;;
75645;SDS011;64237;52.438;13.240;2022-12-07T08:13:55;13.10;;;4.60;;
75645;SDS011;64237;52.438;13.240;2022-12-07T08:16:20;12.52;;;4.90;;
75645;SDS011;64237;52.438;13.240;2022-12-07T08:18:45;11.57;;;4.30;;
75645;SDS011;64237;52.438;13.240;2022-12-07T08:21:12;11.17;;;3.97;;
75645;SDS011;64237;52.438;13.240;2022-12-07T08:23:38;11.77;;;4.13;;
75645;SDS011;64237;52.438;13.240;2022-12-07T08:26:04;9.25;;;3.35;;
75645;SDS011;64237;52.438;13.240;2022-12-07T08:28:31;9.32;;;3.17;;
75645;SDS011;64237;52.438;13.240;2022-12-07T08:31:01;7.82;;;2.92;;
75645;SDS011;64237;52.438;13.240;2022-12-07T08:33:28;9.10;;;3.03;;
75645;SDS011;64237;52.438;13.240;2022-12-07T08:35:53;9.52;;;3.22;;
75645;SDS011;64237;52.438;13.240;2022-12-07T08:38:19;8.57;;;3.00;;
75645;SDS011;64237;52.438;13.240;2022-12-07T08:40:45;7.65;;;2.78;;
75645;SDS011;64237;52.438;13.240;2022-12-07T08:43:17;7.55;;;2.83;;
75645;SDS011;64237;52.438;13.240;2022-12-07T08:45:43;6.57;;;2.40;;
75645;SDS011;64237;52.438;13.240;2022-12-07T08:48:09;3.75;;;1.60;;
75645;SDS011;64237;52.438;13.240;2022-12-07T08:50:38;3.03;;;1.50;;
75645;SDS011;64237;52.438;13.240;2022-12-07T08:53:04;3.20;;;1.58;;
75645;SDS011;64237;52.438;13.240;2022-12-07T08:55:30;4.50;;;2.00;;
75645;SDS011;64237;52.438;13.240;2022-12-07T08:57:58;4.43;;;1.90;;
75645;SDS011;64237;52.438;13.240;2022-12-07T09:00:24;3.78;;;1.60;;
75645;SDS011;64237;52.438;13.240;2022-12-07T09:02:51;3.70;;;1.38;;
75645;SDS011;64237;52.438;13.240;2022-12-07T09:05:16;5.80;;;1.60;;
75645;SDS011;64237;52.438;13.240;2022-12-07T09:07:43;4.68;;;1.67;;
75645;SDS011;64237;52.438;13.240;2022-12-07T09:10:11;3.85;;;1.40;;
75645;SDS011;64237;52.438;13.240;2022-12-07T09:12:36;4.10;;;1.67;;
75645;SDS011;64237;52.438;13.240;2022-12-07T09:15:02;2.58;;;1.15;;
75645;SDS011;64237;52.438;13.240;2022-12-07T09:17:31;2.38;;;1.30;;
75645;SDS011;64237;52.438;13.240;2022-12-07T09:19:58;2.17;;;1.13;;
75645;SDS011;64237;52.438;13.240;2022-12-07T09:22:23;2.47;;;1.10;;
75645;SDS011;64237;52.438;13.240;2022-12-07T09:24:49;2.22;;;0.93;;
75645;SDS011;64237;52.438;13.240;2022-12-07T09:27:14;1.85;;;0.98;;
75645;SDS011;64237;52.438;13.240;2022-12-07T09:29:41;2.65;;;0.98;;
75645;SDS011;64237;52.438;13.240;2022-12-07T09:32:06;4.50;;;0.98;;
75645;SDS011;64237;52.438;13.240;2022-12-07T09:34:32;4.35;;;1.20;;
75645;SDS011;64237;52.438;13.240;2022-12-07T09:36:57;3.03;;;1.27;;
75645;SDS011;64237;52.438;13.240;2022-12-07T09:39:25;3.10;;;1.10;;
75645;SDS011;64237;52.438;13.240;2022-12-07T09:41:51;2.85;;;1.33;;
75645;SDS011;64237;52.438;13.240;2022-12-07T09:44:21;6.65;;;1.48;;
75645;SDS011;64237;52.438;13.240;2022-12-07T09:46:49;2.88;;;1.27;;
75645;SDS011;64237;52.438;13.240;2022-12-07T09:49:22;3.58;;;1.30;;
75645;SDS011;64237;52.438;13.240;2022-12-07T09:51:59;2.15;;;1.08;;
75645;SDS011;64237;52.438;13.240;2022-12-07T09:54:43;2.38;;;1.10;;
75645;SDS011;64237;52.438;13.240;2022-12-07T09:57:12;2.70;;;1.23;;
75645;SDS011;64237;52.438;13.240;2022-12-07T09:59:38;2.65;;;1.08;;
75645;SDS011;64237;52.438;13.240;2022-12-07T10:04:57;2.58;;;1.10;;
75645;SDS011;64237;52.438;13.240;2022-12-07T10:07:23;2.35;;;1.23;;
75645;SDS011;64237;52.438;13.240;2022-12-07T10:09:49;3.83;;;1.58;;
75645;SDS011;64237;52.438;13.240;2022-12-07T10:12:14;2.35;;;1.17;;
75645;SDS011;64237;52.438;13.240;2022-12-07T10:14:51;1.55;;;0.82;;
75645;SDS011;64237;52.438;13.240;2022-12-07T10:17:36;2.38;;;1.13;;
75645;SDS011;64237;52.438;13.240;2022-12-07T10:22:36;2.25;;;1.30;;
75645;SDS011;64237;52.438;13.240;2022-12-07T10:25:09;4.38;;;1.42;;
75645;SDS011;64237;52.438;13.240;2022-12-07T10:27:43;2.85;;;1.50;;
75645;SDS011;64237;52.438;13.240;2022-12-07T10:30:21;4.20;;;1.70;;
75645;SDS011;64237;52.438;13.240;2022-12-07T10:32:47;3.03;;;1.50;;
75645;SDS011;64237;52.438;13.240;2022-12-07T10:35:25;2.47;;;1.27;;
75645;SDS011;64237;52.438;13.240;2022-12-07T10:37:52;4.70;;;1.70;;
75645;SDS011;64237;52.438;13.240;2022-12-07T10:40:26;4.05;;;1.60;;
75645;SDS011;64237;52.438;13.240;2022-12-07T10:43:15;3.47;;;1.83;;
75645;SDS011;64237;52.438;13.240;2022-12-07T10:51:34;6.00;;;1.90;;
75645;SDS011;64237;52.438;13.240;2022-12-07T10:54:19;2.92;;;1.48;;
75645;SDS011;64237;52.438;13.240;2022-12-07T11:02:55;5.28;;;2.13;;
75645;SDS011;64237;52.438;13.240;2022-12-07T11:08:21;5.57;;;2.08;;
75645;SDS011;64237;52.438;13.240;2022-12-07T11:13:23;5.10;;;2.10;;
75645;SDS011;64237;52.438;13.240;2022-12-07T11:24:14;5.70;;;1.65;;
75645;SDS011;64237;52.438;13.240;2022-12-07T11:37:28;5.50;;;1.70;;
75645;SDS011;64237;52.438;13.240;2022-12-07T11:40:02;3.83;;;1.67;;
75645;SDS011;64237;52.438;13.240;2022-12-07T11:42:33;5.82;;;1.80;;
75645;SDS011;64237;52.438;13.240;2022-12-07T11:45:16;4.07;;;1.77;;
75645;SDS011;64237;52.438;13.240;2022-12-07T11:47:48;4.43;;;1.50;;
75645;SDS011;64237;52.438;13.240;2022-12-07T11:53:03;5.35;;;1.67;;
75645;SDS011;64237;52.438;13.240;2022-12-07T11:55:47;5.50;;;1.65;;
75645;SDS011;64237;52.438;13.240;2022-12-07T12:00:46;4.70;;;1.67;;
75645;SDS011;64237;52.438;13.240;2022-12-07T12:03:34;3.40;;;1.40;;
75645;SDS011;64237;52.438;13.240;2022-12-07T12:06:03;6.63;;;1.48;;
75645;SDS011;64237;52.438;13.240;2022-12-07T12:08:33;4.63;;;1.70;;
75645;SDS011;64237;52.438;13.240;2022-12-07T12:19:24;3.42;;;1.30;;
75645;SDS011;64237;52.438;13.240;2022-12-07T12:22:04;3.03;;;1.48;;
75645;SDS011;64237;52.438;13.240;2022-12-07T12:24:37;3.33;;;1.50;;
75645;SDS011;64237;52.438;13.240;2022-12-07T12:27:07;5.93;;;1.70;;
75645;SDS011;64237;52.438;13.240;2022-12-07T12:29:43;4.22;;;0.98;;
75645;SDS011;64237;52.438;13.240;2022-12-07T12:35:03;5.15;;;1.60;;
75645;SDS011;64237;52.438;13.240;2022-12-07T12:37:54;5.90;;;1.52;;
75645;SDS011;64237;52.438;13.240;2022-12-07T12:54:03;4.97;;;1.50;;
75645;SDS011;64237;52.438;13.240;2022-12-07T12:56:41;5.63;;;1.50;;
75645;SDS011;64237;52.438;13.240;2022-12-07T13:01:51;3.28;;;1.05;;
75645;SDS011;64237;52.438;13.240;2022-12-07T13:04:48;5.10;;;1.10;;
75645;SDS011;64237;52.438;13.240;2022-12-07T13:18:39;5.75;;;1.02;;
75645;SDS011;64237;52.438;13.240;2022-12-07T13:26:23;2.33;;;0.93;;
75645;SDS011;64237;52.438;13.240;2022-12-07T13:31:40;2.58;;;0.90;;
75645;SDS011;64237;52.438;13.240;2022-12-07T13:36:52;4.05;;;1.10;;
75645;SDS011;64237;52.438;13.240;2022-12-07T13:39:19;3.03;;;1.13;;
75645;SDS011;64237;52.438;13.240;2022-12-07T13:41:54;2.90;;;1.00;;
75645;SDS011;64237;52.438;13.240;2022-12-07T13:44:22;3.53;;;1.20;;
75645;SDS011;64237;52.438;13.240;2022-12-07T13:49:30;3.13;;;1.33;;
75645;SDS011;64237;52.438;13.240;2022-12-07T13:57:25;3.45;;;1.10;;
75645;SDS011;64237;52.438;13.240;2022-12-07T13:59:53;4.05;;;1.02;;
75645;SDS011;64237;52.438;13.240;2022-12-07T14:02:24;3.58;;;1.10;;
75645;SDS011;64237;52.438;13.240;2022-12-07T14:04:51;2.55;;;1.35;;
75645;SDS011;64237;52.438;13.240;2022-12-07T14:07:31;4.50;;;1.42;;
75645;SDS011;64237;52.438;13.240;2022-12-07T14:09:59;3.40;;;1.25;;
75645;SDS011;64237;52.438;13.240;2022-12-07T14:12:28;4.35;;;1.27;;
75645;SDS011;64237;52.438;13.240;2022-12-07T14:14:55;5.50;;;1.63;;
75645;SDS011;64237;52.438;13.240;2022-12-07T14:17:22;4.55;;;1.20;;
75645;SDS011;64237;52.438;13.240;2022-12-07T14:22:19;4.23;;;1.30;;
75645;SDS011;64237;52.438;13.240;2022-12-07T14:24:45;4.35;;;1.23;;
75645;SDS011;64237;52.438;13.240;2022-12-07T14:27:21;3.03;;;1.40;;
75645;SDS011;64237;52.438;13.240;2022-12-07T14:29:50;4.45;;;1.35;;
75645;SDS011;64237;52.438;13.240;2022-12-07T14:32:28;6.38;;;1.48;;
75645;SDS011;64237;52.438;13.240;2022-12-07T14:37:20;5.70;;;1.48;;
75645;SDS011;64237;52.438;13.240;2022-12-07T14:39:45;4.13;;;1.30;;
75645;SDS011;64237;52.438;13.240;2022-12-07T14:42:11;5.18;;;1.30;;
75645;SDS011;64237;52.438;13.240;2022-12-07T14:44:36;4.97;;;1.20;;
75645;SDS011;64237;52.438;13.240;2022-12-07T14:47:01;7.10;;;1.43;;
75645;SDS011;64237;52.438;13.240;2022-12-07T14:49:27;3.47;;;1.33;;
75645;SDS011;64237;52.438;13.240;2022-12-07T14:51:52;5.25;;;1.40;;
75645;SDS011;64237;52.438;13.240;2022-12-07T14:54:18;5.78;;;1.65;;
75645;SDS011;64237;52.438;13.240;2022-12-07T14:56:45;6.47;;;1.48;;
75645;SDS011;64237;52.438;13.240;2022-12-07T14:59:14;4.57;;;1.20;;
75645;SDS011;64237;52.438;13.240;2022-12-07T15:01:41;4.78;;;1.38;;
75645;SDS011;64237;52.438;13.240;2022-12-07T15:04:06;3.35;;;1.30;;
75645;SDS011;64237;52.438;13.240;2022-12-07T15:06:32;4.85;;;1.25;;
75645;SDS011;64237;52.438;13.240;2022-12-07T15:08:57;3.90;;;1.10;;
75645;SDS011;64237;52.438;13.240;2022-12-07T15:11:23;4.47;;;1.30;;
75645;SDS011;64237;52.438;13.240;2022-12-07T15:13:48;10.05;;;1.88;;
75645;SDS011;64237;52.438;13.240;2022-12-07T15:16:32;3.90;;;1.20;;
75645;SDS011;64237;52.438;13.240;2022-12-07T15:18:57;4.60;;;1.40;;
75645;SDS011;64237;52.438;13.240;2022-12-07T15:21:23;4.80;;;1.20;;
75645;SDS011;64237;52.438;13.240;2022-12-07T15:23:48;5.93;;;1.50;;
75645;SDS011;64237;52.438;13.240;2022-12-07T15:26:13;5.10;;;1.17;;
75645;SDS011;64237;52.438;13.240;2022-12-07T15:28:39;2.20;;;1.08;;
75645;SDS011;64237;52.438;13.240;2022-12-07T15:31:15;4.88;;;1.48;;
75645;SDS011;64237;52.438;13.240;2022-12-07T15:33:42;4.28;;;1.23;;
75645;SDS011;64237;52.438;13.240;2022-12-07T15:36:07;4.80;;;1.40;;
75645;SDS011;64237;52.438;13.240;2022-12-07T15:38:39;5.18;;;1.08;;
75645;SDS011;64237;52.438;13.240;2022-12-07T15:41:05;4.93;;;1.30;;
75645;SDS011;64237;52.438;13.240;2022-12-07T15:43:30;5.37;;;1.27;;
75645;SDS011;64237;52.438;13.240;2022-12-07T15:46:14;2.85;;;1.10;;
75645;SDS011;64237;52.438;13.240;2022-12-07T15:48:39;5.60;;;1.70;;
75645;SDS011;64237;52.438;13.240;2022-12-07T15:51:05;4.97;;;1.30;;
75645;SDS011;64237;52.438;13.240;2022-12-07T15:53:32;5.13;;;1.20;;
75645;SDS011;64237;52.438;13.240;2022-12-07T15:55:58;6.20;;;1.33;;
75645;SDS011;64237;52.438;13.240;2022-12-07T15:58:24;2.45;;;1.35;;
75645;SDS011;64237;52.438;13.240;2022-12-07T16:00:50;8.88;;;1.40;;
75645;SDS011;64237;52.438;13.240;2022-12-07T16:03:15;2.65;;;1.05;;
75645;SDS011;64237;52.438;13.240;2022-12-07T16:05:41;2.72;;;1.20;;
75645;SDS011;64237;52.438;13.240;2022-12-07T16:08:06;6.38;;;1.30;;
75645;SDS011;64237;52.438;13.240;2022-12-07T16:10:31;5.28;;;1.23;;
75645;SDS011;64237;52.438;13.240;2022-12-07T16:12:57;6.20;;;1.30;;
75645;SDS011;64237;52.438;13.240;2022-12-07T16:15:22;5.27;;;1.60;;
75645;SDS011;64237;52.438;13.240;2022-12-07T16:17:49;7.63;;;1.40;;
75645;SDS011;64237;52.438;13.240;2022-12-07T16:20:15;3.17;;;1.23;;
75645;SDS011;64237;52.438;13.240;2022-12-07T16:22:40;3.03;;;1.13;;
75645;SDS011;64237;52.438;13.240;2022-12-07T16:25:05;7.10;;;1.30;;
75645;SDS011;64237;52.438;13.240;2022-12-07T18:28:30;4.32;;;1.60;;
75645;SDS011;64237;52.438;13.240;2022-12-07T18:30:55;4.60;;;1.45;;
75645;SDS011;64237;52.438;13.240;2022-12-07T18:33:21;6.07;;;1.90;;
75645;SDS011;64237;52.438;13.240;2022-12-07T18:35:46;6.88;;;1.90;;
75645;SDS011;64237;52.438;13.240;2022-12-07T18:38:12;6.80;;;1.65;;
75645;SDS011;64237;52.438;13.240;2022-12-07T18:40:39;8.50;;;2.20;;
75645;SDS011;64237;52.438;13.240;2022-12-07T18:43:06;11.27;;;2.85;;
75645;SDS011;64237;52.438;13.240;2022-12-07T18:45:39;7.22;;;2.00;;
75645;SDS011;64237;52.438;13.240;2022-12-07T18:48:06;5.35;;;1.65;;
75645;SDS011;64237;52.438;13.240;2022-12-07T18:50:33;5.45;;;1.85;;
75645;SDS011;64237;52.438;13.240;2022-12-07T18:53:00;3.67;;;1.60;;
75645;SDS011;64237;52.438;13.240;2022-12-07T18:55:27;4.63;;;1.52;;
75645;SDS011;64237;52.438;13.240;2022-12-07T18:57:54;6.50;;;1.92;;
75645;SDS011;64237;52.438;13.240;2022-12-07T19:00:20;5.47;;;1.70;;
75645;SDS011;64237;52.438;13.240;2022-12-07T19:02:47;7.78;;;1.90;;
75645;SDS011;64237;52.438;13.240;2022-12-07T19:05:13;10.80;;;1.60;;